sensor_id;sensor_type;location;lat;lon;timestamp;P1;durP1;ratioP1;P2;durP2;ratioP2
53525;SDS011;40551;50.478;19.378;2022-09-09T00:01:57;13.00;;;9.50;;
53525;SDS011;40551;50.478;19.378;2022-09-09T00:04:33;12.50;;;9.80;;
53525;SDS011;40551;50.478;19.378;2022-09-09T00:07:10;12.20;;;8.90;;
53525;SDS011;40551;50.478;19.378;2022-09-09T00:09:50;12.60;;;8.80;;
53525;SDS011;40551;50.478;19.378;2022-09-09T00:12:34;12.80;;;8.50;;
53525;SDS011;40551;50.478;19.378;2022-09-09T00:15:12;9.80;;;8.10;;
53525;SDS011;40551;50.478;19.378;2022-09-09T00:17:50;10.30;;;8.40;;
53525;SDS011;40551;50.478;19.378;2022-09-09T00:20:28;9.50;;;7.50;;
53525;SDS011;40551;50.478;19.378;2022-09-09T00:23:08;9.00;;;7.60;;
53525;SDS011;40551;50.478;19.378;2022-09-09T00:25:49;9.30;;;7.60;;
53525;SDS011;40551;50.478;19.378;2022-09-09T00:28:30;10.80;;;8.40;;
53525;SDS011;40551;50.478;19.378;2022-09-09T00:31:11;15.50;;;8.70;;
53525;SDS011;40551;50.478;19.378;2022-09-09T00:33:46;10.40;;;8.00;;
53525;SDS011;40551;50.478;19.378;2022-09-09T00:36:21;10.20;;;8.20;;
53525;SDS011;40551;50.478;19.378;2022-09-09T00:38:55;12.80;;;8.00;;
53525;SDS011;40551;50.478;19.378;2022-09-09T00:41:32;10.80;;;8.20;;
53525;SDS011;40551;50.478;19.378;2022-09-09T00:44:19;10.90;;;7.60;;
53525;SDS011;40551;50.478;19.378;2022-09-09T00:47:01;9.20;;;7.30;;
53525;SDS011;40551;50.478;19.378;2022-09-09T00:49:42;10.60;;;7.80;;
53525;SDS011;40551;50.478;19.378;2022-09-09T00:52:32;10.40;;;7.30;;
53525;SDS011;40551;50.478;19.378;2022-09-09T00:55:11;11.50;;;7.40;;
53525;SDS011;40551;50.478;19.378;2022-09-09T00:57:51;10.70;;;7.40;;
53525;SDS011;40551;50.478;19.378;2022-09-09T01:00:25;10.80;;;7.20;;
53525;SDS011;40551;50.478;19.378;2022-09-09T01:03:13;10.40;;;7.10;;
53525;SDS011;40551;50.478;19.378;2022-09-09T01:05:58;10.20;;;7.10;;
53525;SDS011;40551;50.478;19.378;2022-09-09T01:08:38;9.70;;;7.70;;
53525;SDS011;40551;50.478;19.378;2022-09-09T01:11:21;11.40;;;7.20;;
53525;SDS011;40551;50.478;19.378;2022-09-09T01:14:00;10.50;;;7.70;;
53525;SDS011;40551;50.478;19.378;2022-09-09T01:16:40;11.20;;;7.60;;
53525;SDS011;40551;50.478;19.378;2022-09-09T01:19:15;10.00;;;7.60;;
53525;SDS011;40551;50.478;19.378;2022-09-09T01:21:57;10.30;;;7.80;;
53525;SDS011;40551;50.478;19.378;2022-09-09T01:24:36;9.80;;;7.40;;
53525;SDS011;40551;50.478;19.378;2022-09-09T01:27:19;12.30;;;8.10;;
53525;SDS011;40551;50.478;19.378;2022-09-09T01:29:51;10.60;;;7.60;;
53525;SDS011;40551;50.478;19.378;2022-09-09T01:32:40;12.00;;;7.60;;
53525;SDS011;40551;50.478;19.378;2022-09-09T01:35:26;12.60;;;8.30;;
53525;SDS011;40551;50.478;19.378;2022-09-09T01:38:03;16.50;;;8.00;;
53525;SDS011;40551;50.478;19.378;2022-09-09T01:40:38;11.10;;;7.30;;
53525;SDS011;40551;50.478;19.378;2022-09-09T01:43:10;11.10;;;8.40;;
53525;SDS011;40551;50.478;19.378;2022-09-09T01:45:41;12.50;;;8.00;;
53525;SDS011;40551;50.478;19.378;2022-09-09T01:48:15;12.20;;;7.80;;
53525;SDS011;40551;50.478;19.378;2022-09-09T01:50:56;11.70;;;8.40;;
53525;SDS011;40551;50.478;19.378;2022-09-09T01:53:28;10.60;;;9.00;;
53525;SDS011;40551;50.478;19.378;2022-09-09T01:56:02;10.10;;;8.60;;
53525;SDS011;40551;50.478;19.378;2022-09-09T01:58:47;11.30;;;9.30;;
53525;SDS011;40551;50.478;19.378;2022-09-09T02:01:31;11.10;;;8.60;;
53525;SDS011;40551;50.478;19.378;2022-09-09T02:04:16;11.50;;;9.20;;
53525;SDS011;40551;50.478;19.378;2022-09-09T02:06:57;11.70;;;10.30;;
53525;SDS011;40551;50.478;19.378;2022-09-09T02:09:30;10.80;;;9.60;;
53525;SDS011;40551;50.478;19.378;2022-09-09T02:12:04;14.00;;;9.90;;
53525;SDS011;40551;50.478;19.378;2022-09-09T02:14:46;12.40;;;9.80;;
53525;SDS011;40551;50.478;19.378;2022-09-09T02:17:26;11.70;;;9.80;;
53525;SDS011;40551;50.478;19.378;2022-09-09T02:20:12;11.70;;;10.10;;
53525;SDS011;40551;50.478;19.378;2022-09-09T02:22:48;11.20;;;10.10;;
53525;SDS011;40551;50.478;19.378;2022-09-09T02:25:24;12.60;;;10.60;;
53525;SDS011;40551;50.478;19.378;2022-09-09T02:28:03;12.80;;;11.10;;
53525;SDS011;40551;50.478;19.378;2022-09-09T02:30:38;14.60;;;11.60;;
53525;SDS011;40551;50.478;19.378;2022-09-09T02:33:15;14.80;;;11.20;;
53525;SDS011;40551;50.478;19.378;2022-09-09T02:35:49;14.30;;;11.60;;
53525;SDS011;40551;50.478;19.378;2022-09-09T02:38:23;13.20;;;11.80;;
53525;SDS011;40551;50.478;19.378;2022-09-09T02:41:09;13.20;;;11.80;;
53525;SDS011;40551;50.478;19.378;2022-09-09T02:43:41;12.00;;;9.80;;
53525;SDS011;40551;50.478;19.378;2022-09-09T02:46:18;14.40;;;11.30;;
53525;SDS011;40551;50.478;19.378;2022-09-09T02:49:03;13.30;;;11.90;;
53525;SDS011;40551;50.478;19.378;2022-09-09T02:51:44;12.00;;;10.80;;
53525;SDS011;40551;50.478;19.378;2022-09-09T02:54:27;15.80;;;11.50;;
53525;SDS011;40551;50.478;19.378;2022-09-09T02:57:04;17.60;;;14.70;;
53525;SDS011;40551;50.478;19.378;2022-09-09T02:59:40;13.60;;;12.30;;
53525;SDS011;40551;50.478;19.378;2022-09-09T03:02:13;16.00;;;12.60;;
53525;SDS011;40551;50.478;19.378;2022-09-09T03:04:46;13.70;;;12.50;;
53525;SDS011;40551;50.478;19.378;2022-09-09T03:07:20;15.10;;;13.60;;
53525;SDS011;40551;50.478;19.378;2022-09-09T03:09:53;15.40;;;12.90;;
53525;SDS011;40551;50.478;19.378;2022-09-09T03:12:27;17.50;;;13.30;;
53525;SDS011;40551;50.478;19.378;2022-09-09T03:14:58;13.60;;;12.30;;
53525;SDS011;40551;50.478;19.378;2022-09-09T03:17:30;15.70;;;13.50;;
53525;SDS011;40551;50.478;19.378;2022-09-09T03:20:01;18.70;;;13.60;;
53525;SDS011;40551;50.478;19.378;2022-09-09T03:22:34;14.50;;;13.10;;
53525;SDS011;40551;50.478;19.378;2022-09-09T03:25:06;15.40;;;13.30;;
53525;SDS011;40551;50.478;19.378;2022-09-09T03:27:39;18.20;;;13.50;;
53525;SDS011;40551;50.478;19.378;2022-09-09T03:30:12;14.20;;;12.80;;
53525;SDS011;40551;50.478;19.378;2022-09-09T03:32:44;15.70;;;12.90;;
53525;SDS011;40551;50.478;19.378;2022-09-09T03:35:17;14.60;;;13.10;;
53525;SDS011;40551;50.478;19.378;2022-09-09T03:37:48;15.10;;;13.60;;
53525;SDS011;40551;50.478;19.378;2022-09-09T03:40:20;15.80;;;14.30;;
53525;SDS011;40551;50.478;19.378;2022-09-09T03:42:51;16.90;;;15.50;;
53525;SDS011;40551;50.478;19.378;2022-09-09T03:45:23;17.00;;;15.30;;
53525;SDS011;40551;50.478;19.378;2022-09-09T03:47:55;18.20;;;15.80;;
53525;SDS011;40551;50.478;19.378;2022-09-09T03:50:26;19.80;;;17.80;;
53525;SDS011;40551;50.478;19.378;2022-09-09T03:52:58;18.10;;;16.20;;
53525;SDS011;40551;50.478;19.378;2022-09-09T03:55:30;17.90;;;16.10;;
53525;SDS011;40551;50.478;19.378;2022-09-09T03:58:02;18.60;;;16.60;;
53525;SDS011;40551;50.478;19.378;2022-09-09T04:00:33;17.80;;;16.10;;
53525;SDS011;40551;50.478;19.378;2022-09-09T04:03:05;18.00;;;16.30;;
53525;SDS011;40551;50.478;19.378;2022-09-09T04:05:37;17.90;;;15.80;;
53525;SDS011;40551;50.478;19.378;2022-09-09T04:08:11;18.70;;;16.90;;
53525;SDS011;40551;50.478;19.378;2022-09-09T04:10:46;17.70;;;16.10;;
53525;SDS011;40551;50.478;19.378;2022-09-09T04:13:18;19.60;;;17.70;;
53525;SDS011;40551;50.478;19.378;2022-09-09T04:15:52;17.40;;;15.70;;
53525;SDS011;40551;50.478;19.378;2022-09-09T04:18:24;17.90;;;16.20;;
53525;SDS011;40551;50.478;19.378;2022-09-09T04:20:57;18.60;;;16.90;;
53525;SDS011;40551;50.478;19.378;2022-09-09T04:23:29;17.80;;;16.20;;
53525;SDS011;40551;50.478;19.378;2022-09-09T04:26:02;17.90;;;16.20;;
53525;SDS011;40551;50.478;19.378;2022-09-09T04:28:35;18.50;;;16.80;;
53525;SDS011;40551;50.478;19.378;2022-09-09T04:31:14;17.10;;;15.20;;
53525;SDS011;40551;50.478;19.378;2022-09-09T04:33:49;16.80;;;14.80;;
53525;SDS011;40551;50.478;19.378;2022-09-09T04:36:21;17.00;;;15.40;;
53525;SDS011;40551;50.478;19.378;2022-09-09T04:38:55;17.80;;;16.10;;
53525;SDS011;40551;50.478;19.378;2022-09-09T04:41:27;18.50;;;16.40;;
53525;SDS011;40551;50.478;19.378;2022-09-09T04:44:00;18.60;;;16.80;;
53525;SDS011;40551;50.478;19.378;2022-09-09T04:46:33;20.40;;;18.40;;
53525;SDS011;40551;50.478;19.378;2022-09-09T04:49:05;20.40;;;18.30;;
53525;SDS011;40551;50.478;19.378;2022-09-09T04:51:44;19.30;;;17.60;;
53525;SDS011;40551;50.478;19.378;2022-09-09T04:54:16;18.60;;;17.00;;
53525;SDS011;40551;50.478;19.378;2022-09-09T04:56:49;18.30;;;16.70;;
53525;SDS011;40551;50.478;19.378;2022-09-09T04:59:21;21.70;;;19.80;;
53525;SDS011;40551;50.478;19.378;2022-09-09T05:01:54;22.00;;;19.00;;
53525;SDS011;40551;50.478;19.378;2022-09-09T05:04:26;22.00;;;19.90;;
53525;SDS011;40551;50.478;19.378;2022-09-09T05:06:58;23.30;;;21.00;;
53525;SDS011;40551;50.478;19.378;2022-09-09T05:09:29;23.40;;;21.00;;
53525;SDS011;40551;50.478;19.378;2022-09-09T05:12:02;23.20;;;21.20;;
53525;SDS011;40551;50.478;19.378;2022-09-09T05:14:36;21.20;;;19.30;;
53525;SDS011;40551;50.478;19.378;2022-09-09T05:17:09;20.80;;;18.90;;
53525;SDS011;40551;50.478;19.378;2022-09-09T05:19:42;19.60;;;17.30;;
53525;SDS011;40551;50.478;19.378;2022-09-09T05:22:14;18.30;;;16.60;;
53525;SDS011;40551;50.478;19.378;2022-09-09T05:24:50;16.70;;;15.00;;
53525;SDS011;40551;50.478;19.378;2022-09-09T05:27:22;16.00;;;14.50;;
53525;SDS011;40551;50.478;19.378;2022-09-09T05:29:53;16.10;;;14.50;;
53525;SDS011;40551;50.478;19.378;2022-09-09T05:32:29;14.80;;;13.40;;
53525;SDS011;40551;50.478;19.378;2022-09-09T05:35:03;15.20;;;13.70;;
53525;SDS011;40551;50.478;19.378;2022-09-09T05:37:36;13.10;;;11.80;;
53525;SDS011;40551;50.478;19.378;2022-09-09T05:40:09;14.70;;;12.20;;
53525;SDS011;40551;50.478;19.378;2022-09-09T05:42:42;13.70;;;11.90;;
53525;SDS011;40551;50.478;19.378;2022-09-09T05:45:13;14.30;;;11.60;;
53525;SDS011;40551;50.478;19.378;2022-09-09T05:47:51;16.50;;;11.70;;
53525;SDS011;40551;50.478;19.378;2022-09-09T05:50:24;13.60;;;12.30;;
53525;SDS011;40551;50.478;19.378;2022-09-09T05:52:59;13.30;;;11.90;;
53525;SDS011;40551;50.478;19.378;2022-09-09T05:55:32;14.80;;;11.30;;
53525;SDS011;40551;50.478;19.378;2022-09-09T05:58:04;12.90;;;10.80;;
53525;SDS011;40551;50.478;19.378;2022-09-09T06:00:36;12.10;;;10.00;;
53525;SDS011;40551;50.478;19.378;2022-09-09T06:03:08;13.70;;;10.30;;
53525;SDS011;40551;50.478;19.378;2022-09-09T06:05:41;16.40;;;10.30;;
53525;SDS011;40551;50.478;19.378;2022-09-09T06:08:12;11.70;;;10.50;;
53525;SDS011;40551;50.478;19.378;2022-09-09T06:10:45;12.20;;;10.70;;
53525;SDS011;40551;50.478;19.378;2022-09-09T06:13:16;12.40;;;10.20;;
53525;SDS011;40551;50.478;19.378;2022-09-09T06:15:51;11.60;;;9.00;;
53525;SDS011;40551;50.478;19.378;2022-09-09T06:18:23;11.50;;;9.50;;
53525;SDS011;40551;50.478;19.378;2022-09-09T06:20:56;11.30;;;9.30;;
53525;SDS011;40551;50.478;19.378;2022-09-09T06:23:30;10.80;;;9.20;;
53525;SDS011;40551;50.478;19.378;2022-09-09T06:26:05;15.00;;;10.00;;
53525;SDS011;40551;50.478;19.378;2022-09-09T06:28:39;14.00;;;9.40;;
53525;SDS011;40551;50.478;19.378;2022-09-09T06:31:12;11.10;;;9.10;;
53525;SDS011;40551;50.478;19.378;2022-09-09T06:33:46;11.20;;;10.00;;
53525;SDS011;40551;50.478;19.378;2022-09-09T06:36:18;11.10;;;9.90;;
53525;SDS011;40551;50.478;19.378;2022-09-09T06:38:51;11.10;;;9.90;;
53525;SDS011;40551;50.478;19.378;2022-09-09T06:41:24;11.50;;;10.30;;
53525;SDS011;40551;50.478;19.378;2022-09-09T06:43:57;13.10;;;9.40;;
53525;SDS011;40551;50.478;19.378;2022-09-09T06:46:34;11.10;;;9.30;;
53525;SDS011;40551;50.478;19.378;2022-09-09T06:49:07;11.80;;;8.60;;
53525;SDS011;40551;50.478;19.378;2022-09-09T06:51:39;10.20;;;8.20;;
53525;SDS011;40551;50.478;19.378;2022-09-09T06:54:12;12.10;;;8.10;;
53525;SDS011;40551;50.478;19.378;2022-09-09T06:56:46;11.10;;;8.00;;
53525;SDS011;40551;50.478;19.378;2022-09-09T07:00:03;8.60;;;7.00;;
53525;SDS011;40551;50.478;19.378;2022-09-09T07:02:36;9.40;;;7.30;;
53525;SDS011;40551;50.478;19.378;2022-09-09T07:05:09;8.80;;;6.60;;
53525;SDS011;40551;50.478;19.378;2022-09-09T07:07:42;10.70;;;6.80;;
53525;SDS011;40551;50.478;19.378;2022-09-09T07:10:14;10.00;;;6.70;;
53525;SDS011;40551;50.478;19.378;2022-09-09T07:12:46;9.30;;;6.80;;
53525;SDS011;40551;50.478;19.378;2022-09-09T07:15:23;8.70;;;6.70;;
53525;SDS011;40551;50.478;19.378;2022-09-09T07:17:55;9.00;;;6.90;;
53525;SDS011;40551;50.478;19.378;2022-09-09T07:20:32;11.30;;;6.60;;
53525;SDS011;40551;50.478;19.378;2022-09-09T07:23:04;9.00;;;6.80;;
53525;SDS011;40551;50.478;19.378;2022-09-09T07:25:36;10.70;;;6.80;;
53525;SDS011;40551;50.478;19.378;2022-09-09T07:28:07;9.10;;;6.90;;
53525;SDS011;40551;50.478;19.378;2022-09-09T07:30:39;10.50;;;6.00;;
53525;SDS011;40551;50.478;19.378;2022-09-09T07:33:11;9.10;;;6.60;;
53525;SDS011;40551;50.478;19.378;2022-09-09T07:35:43;11.40;;;6.40;;
53525;SDS011;40551;50.478;19.378;2022-09-09T07:38:14;9.60;;;6.90;;
53525;SDS011;40551;50.478;19.378;2022-09-09T07:40:46;11.30;;;7.10;;
53525;SDS011;40551;50.478;19.378;2022-09-09T07:43:18;8.90;;;7.00;;
53525;SDS011;40551;50.478;19.378;2022-09-09T07:45:58;10.60;;;6.30;;
53525;SDS011;40551;50.478;19.378;2022-09-09T07:48:31;12.90;;;6.80;;
53525;SDS011;40551;50.478;19.378;2022-09-09T07:51:08;11.60;;;6.40;;
53525;SDS011;40551;50.478;19.378;2022-09-09T07:53:45;9.10;;;5.90;;
53525;SDS011;40551;50.478;19.378;2022-09-09T07:56:17;9.30;;;6.60;;
53525;SDS011;40551;50.478;19.378;2022-09-09T07:58:51;9.40;;;6.30;;
53525;SDS011;40551;50.478;19.378;2022-09-09T08:01:24;9.00;;;6.00;;
53525;SDS011;40551;50.478;19.378;2022-09-09T08:03:58;9.30;;;5.50;;
53525;SDS011;40551;50.478;19.378;2022-09-09T08:06:34;9.40;;;5.20;;
53525;SDS011;40551;50.478;19.378;2022-09-09T08:09:08;10.00;;;4.90;;
53525;SDS011;40551;50.478;19.378;2022-09-09T08:11:40;9.00;;;6.40;;
53525;SDS011;40551;50.478;19.378;2022-09-09T08:14:12;10.00;;;5.70;;
53525;SDS011;40551;50.478;19.378;2022-09-09T08:16:45;8.10;;;5.40;;
53525;SDS011;40551;50.478;19.378;2022-09-09T08:19:20;8.40;;;5.80;;
53525;SDS011;40551;50.478;19.378;2022-09-09T08:21:53;7.80;;;5.10;;
53525;SDS011;40551;50.478;19.378;2022-09-09T08:24:25;10.60;;;5.50;;
53525;SDS011;40551;50.478;19.378;2022-09-09T08:26:58;7.60;;;4.80;;
53525;SDS011;40551;50.478;19.378;2022-09-09T08:29:30;7.90;;;4.60;;
53525;SDS011;40551;50.478;19.378;2022-09-09T08:32:03;9.60;;;4.40;;
53525;SDS011;40551;50.478;19.378;2022-09-09T08:34:35;7.80;;;4.40;;
53525;SDS011;40551;50.478;19.378;2022-09-09T08:37:10;8.70;;;5.20;;
53525;SDS011;40551;50.478;19.378;2022-09-09T08:39:43;8.80;;;4.70;;
53525;SDS011;40551;50.478;19.378;2022-09-09T08:42:27;7.10;;;4.20;;
53525;SDS011;40551;50.478;19.378;2022-09-09T08:45:20;10.60;;;4.50;;
53525;SDS011;40551;50.478;19.378;2022-09-09T08:48:13;8.40;;;3.80;;
53525;SDS011;40551;50.478;19.378;2022-09-09T08:53:27;8.20;;;2.90;;
53525;SDS011;40551;50.478;19.378;2022-09-09T08:56:09;6.60;;;3.30;;
53525;SDS011;40551;50.478;19.378;2022-09-09T08:58:47;9.20;;;5.80;;
53525;SDS011;40551;50.478;19.378;2022-09-09T09:01:35;7.80;;;4.00;;
53525;SDS011;40551;50.478;19.378;2022-09-09T09:07:18;7.30;;;3.10;;
53525;SDS011;40551;50.478;19.378;2022-09-09T09:10:03;7.30;;;3.60;;
53525;SDS011;40551;50.478;19.378;2022-09-09T09:13:00;7.10;;;3.10;;
53525;SDS011;40551;50.478;19.378;2022-09-09T09:15:35;9.20;;;3.40;;
53525;SDS011;40551;50.478;19.378;2022-09-09T09:18:10;9.70;;;3.30;;
53525;SDS011;40551;50.478;19.378;2022-09-09T09:20:49;8.40;;;3.20;;
53525;SDS011;40551;50.478;19.378;2022-09-09T09:23:25;7.30;;;3.30;;
53525;SDS011;40551;50.478;19.378;2022-09-09T09:26:07;9.40;;;4.50;;
53525;SDS011;40551;50.478;19.378;2022-09-09T09:28:41;10.60;;;7.00;;
53525;SDS011;40551;50.478;19.378;2022-09-09T09:31:16;10.10;;;3.60;;
53525;SDS011;40551;50.478;19.378;2022-09-09T09:33:50;8.60;;;3.80;;
53525;SDS011;40551;50.478;19.378;2022-09-09T09:36:33;9.00;;;3.80;;
53525;SDS011;40551;50.478;19.378;2022-09-09T09:39:21;8.00;;;3.70;;
53525;SDS011;40551;50.478;19.378;2022-09-09T09:42:15;7.90;;;3.00;;
53525;SDS011;40551;50.478;19.378;2022-09-09T09:44:52;8.20;;;3.10;;
53525;SDS011;40551;50.478;19.378;2022-09-09T09:47:23;7.30;;;3.00;;
53525;SDS011;40551;50.478;19.378;2022-09-09T09:50:19;7.30;;;2.90;;
53525;SDS011;40551;50.478;19.378;2022-09-09T09:52:56;8.70;;;3.80;;
53525;SDS011;40551;50.478;19.378;2022-09-09T09:55:31;7.40;;;2.90;;
53525;SDS011;40551;50.478;19.378;2022-09-09T09:58:06;8.20;;;3.00;;
53525;SDS011;40551;50.478;19.378;2022-09-09T10:00:50;6.90;;;3.10;;
53525;SDS011;40551;50.478;19.378;2022-09-09T10:03:26;8.50;;;3.50;;
53525;SDS011;40551;50.478;19.378;2022-09-09T10:05:59;8.00;;;3.00;;
53525;SDS011;40551;50.478;19.378;2022-09-09T10:08:33;8.70;;;3.60;;
53525;SDS011;40551;50.478;19.378;2022-09-09T10:11:21;8.80;;;4.10;;
53525;SDS011;40551;50.478;19.378;2022-09-09T10:14:03;6.40;;;3.60;;
53525;SDS011;40551;50.478;19.378;2022-09-09T10:16:47;7.90;;;3.50;;
53525;SDS011;40551;50.478;19.378;2022-09-09T10:19:30;7.00;;;3.30;;
53525;SDS011;40551;50.478;19.378;2022-09-09T10:22:07;6.80;;;3.20;;
53525;SDS011;40551;50.478;19.378;2022-09-09T10:24:58;6.70;;;3.20;;
53525;SDS011;40551;50.478;19.378;2022-09-09T10:27:59;9.90;;;3.20;;
53525;SDS011;40551;50.478;19.378;2022-09-09T10:30:54;7.50;;;3.20;;
53525;SDS011;40551;50.478;19.378;2022-09-09T10:33:40;6.40;;;3.10;;
53525;SDS011;40551;50.478;19.378;2022-09-09T10:36:20;7.00;;;3.20;;
53525;SDS011;40551;50.478;19.378;2022-09-09T10:38:54;6.20;;;2.70;;
53525;SDS011;40551;50.478;19.378;2022-09-09T10:41:36;6.80;;;2.90;;
53525;SDS011;40551;50.478;19.378;2022-09-09T10:44:29;5.30;;;2.60;;
53525;SDS011;40551;50.478;19.378;2022-09-09T10:47:16;11.30;;;3.50;;
53525;SDS011;40551;50.478;19.378;2022-09-09T10:50:01;6.70;;;2.40;;
53525;SDS011;40551;50.478;19.378;2022-09-09T10:53:08;6.50;;;2.90;;
53525;SDS011;40551;50.478;19.378;2022-09-09T10:55:50;7.00;;;2.60;;
53525;SDS011;40551;50.478;19.378;2022-09-09T10:58:28;7.20;;;2.50;;
53525;SDS011;40551;50.478;19.378;2022-09-09T11:01:09;7.00;;;2.50;;
53525;SDS011;40551;50.478;19.378;2022-09-09T11:03:44;5.80;;;2.20;;
53525;SDS011;40551;50.478;19.378;2022-09-09T11:06:28;5.30;;;2.40;;
53525;SDS011;40551;50.478;19.378;2022-09-09T11:09:02;5.90;;;2.50;;
53525;SDS011;40551;50.478;19.378;2022-09-09T11:11:36;6.80;;;2.60;;
53525;SDS011;40551;50.478;19.378;2022-09-09T11:14:17;6.30;;;2.10;;
53525;SDS011;40551;50.478;19.378;2022-09-09T11:16:53;5.60;;;2.20;;
53525;SDS011;40551;50.478;19.378;2022-09-09T11:19:31;6.10;;;2.20;;
53525;SDS011;40551;50.478;19.378;2022-09-09T11:22:07;6.70;;;2.30;;
53525;SDS011;40551;50.478;19.378;2022-09-09T11:24:47;5.10;;;2.20;;
53525;SDS011;40551;50.478;19.378;2022-09-09T11:27:24;5.30;;;2.20;;
53525;SDS011;40551;50.478;19.378;2022-09-09T11:33:18;8.00;;;2.80;;
53525;SDS011;40551;50.478;19.378;2022-09-09T11:36:29;6.20;;;2.10;;
53525;SDS011;40551;50.478;19.378;2022-09-09T11:39:33;8.10;;;3.00;;
53525;SDS011;40551;50.478;19.378;2022-09-09T11:42:17;4.70;;;2.30;;
53525;SDS011;40551;50.478;19.378;2022-09-09T11:44:50;5.00;;;2.20;;
53525;SDS011;40551;50.478;19.378;2022-09-09T11:47:24;11.40;;;2.50;;
53525;SDS011;40551;50.478;19.378;2022-09-09T11:50:08;6.40;;;2.20;;
53525;SDS011;40551;50.478;19.378;2022-09-09T11:53:14;7.20;;;2.80;;
53525;SDS011;40551;50.478;19.378;2022-09-09T11:56:06;6.80;;;2.30;;
53525;SDS011;40551;50.478;19.378;2022-09-09T11:58:40;5.70;;;1.90;;
53525;SDS011;40551;50.478;19.378;2022-09-09T12:01:30;6.10;;;2.80;;
53525;SDS011;40551;50.478;19.378;2022-09-09T12:07:20;5.70;;;1.90;;
53525;SDS011;40551;50.478;19.378;2022-09-09T12:09:59;6.40;;;2.10;;
53525;SDS011;40551;50.478;19.378;2022-09-09T12:12:34;4.80;;;1.90;;
53525;SDS011;40551;50.478;19.378;2022-09-09T12:18:03;6.70;;;2.10;;
53525;SDS011;40551;50.478;19.378;2022-09-09T12:23:24;4.50;;;1.80;;
53525;SDS011;40551;50.478;19.378;2022-09-09T12:26:10;4.80;;;2.00;;
53525;SDS011;40551;50.478;19.378;2022-09-09T12:28:56;5.60;;;2.10;;
53525;SDS011;40551;50.478;19.378;2022-09-09T12:31:37;6.40;;;1.90;;
53525;SDS011;40551;50.478;19.378;2022-09-09T12:34:14;6.80;;;2.30;;
53525;SDS011;40551;50.478;19.378;2022-09-09T12:36:55;7.70;;;2.20;;
53525;SDS011;40551;50.478;19.378;2022-09-09T12:39:32;6.70;;;2.70;;
53525;SDS011;40551;50.478;19.378;2022-09-09T12:42:17;6.20;;;2.10;;
53525;SDS011;40551;50.478;19.378;2022-09-09T12:44:53;7.50;;;2.70;;
53525;SDS011;40551;50.478;19.378;2022-09-09T12:47:37;8.40;;;2.40;;
53525;SDS011;40551;50.478;19.378;2022-09-09T12:50:16;11.10;;;5.00;;
53525;SDS011;40551;50.478;19.378;2022-09-09T12:52:51;7.50;;;2.70;;
53525;SDS011;40551;50.478;19.378;2022-09-09T12:55:25;5.60;;;2.00;;
53525;SDS011;40551;50.478;19.378;2022-09-09T12:58:02;6.90;;;2.20;;
53525;SDS011;40551;50.478;19.378;2022-09-09T13:00:35;6.60;;;1.90;;
53525;SDS011;40551;50.478;19.378;2022-09-09T13:03:20;8.00;;;2.00;;
53525;SDS011;40551;50.478;19.378;2022-09-09T13:05:52;5.10;;;2.10;;
53525;SDS011;40551;50.478;19.378;2022-09-09T13:08:29;5.30;;;1.90;;
53525;SDS011;40551;50.478;19.378;2022-09-09T13:11:03;5.50;;;2.10;;
53525;SDS011;40551;50.478;19.378;2022-09-09T13:13:39;5.50;;;2.20;;
53525;SDS011;40551;50.478;19.378;2022-09-09T13:16:23;7.90;;;2.30;;
53525;SDS011;40551;50.478;19.378;2022-09-09T13:19:01;6.50;;;2.30;;
53525;SDS011;40551;50.478;19.378;2022-09-09T13:21:38;6.70;;;2.10;;
53525;SDS011;40551;50.478;19.378;2022-09-09T13:24:23;9.50;;;2.60;;
53525;SDS011;40551;50.478;19.378;2022-09-09T13:26:59;7.00;;;2.60;;
53525;SDS011;40551;50.478;19.378;2022-09-09T13:29:32;5.90;;;2.10;;
53525;SDS011;40551;50.478;19.378;2022-09-09T13:32:15;6.50;;;2.30;;
53525;SDS011;40551;50.478;19.378;2022-09-09T13:34:52;5.20;;;2.30;;
53525;SDS011;40551;50.478;19.378;2022-09-09T13:37:26;7.10;;;2.20;;
53525;SDS011;40551;50.478;19.378;2022-09-09T13:40:01;7.00;;;2.30;;
53525;SDS011;40551;50.478;19.378;2022-09-09T13:42:34;5.80;;;2.30;;
53525;SDS011;40551;50.478;19.378;2022-09-09T13:45:18;5.50;;;2.40;;
53525;SDS011;40551;50.478;19.378;2022-09-09T13:47:51;5.40;;;2.20;;
53525;SDS011;40551;50.478;19.378;2022-09-09T13:50:25;9.20;;;2.20;;
53525;SDS011;40551;50.478;19.378;2022-09-09T13:52:58;6.30;;;2.30;;
53525;SDS011;40551;50.478;19.378;2022-09-09T13:55:30;7.20;;;2.40;;
53525;SDS011;40551;50.478;19.378;2022-09-09T13:58:02;6.10;;;2.50;;
53525;SDS011;40551;50.478;19.378;2022-09-09T14:00:34;7.00;;;2.30;;
53525;SDS011;40551;50.478;19.378;2022-09-09T14:03:06;6.10;;;2.50;;
53525;SDS011;40551;50.478;19.378;2022-09-09T14:05:37;7.90;;;2.50;;
53525;SDS011;40551;50.478;19.378;2022-09-09T14:08:11;6.90;;;2.50;;
53525;SDS011;40551;50.478;19.378;2022-09-09T14:10:50;7.60;;;2.80;;
53525;SDS011;40551;50.478;19.378;2022-09-09T14:13:22;5.50;;;2.30;;
53525;SDS011;40551;50.478;19.378;2022-09-09T14:15:53;6.40;;;2.60;;
53525;SDS011;40551;50.478;19.378;2022-09-09T14:18:25;7.10;;;2.70;;
53525;SDS011;40551;50.478;19.378;2022-09-09T14:20:56;8.10;;;2.70;;
53525;SDS011;40551;50.478;19.378;2022-09-09T14:23:28;8.10;;;2.70;;
53525;SDS011;40551;50.478;19.378;2022-09-09T14:26:01;9.10;;;2.50;;
53525;SDS011;40551;50.478;19.378;2022-09-09T14:28:32;6.90;;;2.30;;
53525;SDS011;40551;50.478;19.378;2022-09-09T14:31:23;7.20;;;2.50;;
53525;SDS011;40551;50.478;19.378;2022-09-09T14:33:55;6.70;;;2.80;;
53525;SDS011;40551;50.478;19.378;2022-09-09T14:36:27;6.40;;;2.60;;
53525;SDS011;40551;50.478;19.378;2022-09-09T14:38:59;7.00;;;2.40;;
53525;SDS011;40551;50.478;19.378;2022-09-09T14:41:30;8.50;;;2.70;;
53525;SDS011;40551;50.478;19.378;2022-09-09T14:44:02;8.60;;;2.70;;
53525;SDS011;40551;50.478;19.378;2022-09-09T14:46:34;7.10;;;2.60;;
53525;SDS011;40551;50.478;19.378;2022-09-09T14:49:05;8.30;;;2.50;;
53525;SDS011;40551;50.478;19.378;2022-09-09T14:51:36;5.60;;;2.40;;
53525;SDS011;40551;50.478;19.378;2022-09-09T14:54:08;5.70;;;2.70;;
53525;SDS011;40551;50.478;19.378;2022-09-09T14:56:40;6.40;;;2.20;;
53525;SDS011;40551;50.478;19.378;2022-09-09T14:59:12;6.30;;;2.40;;
53525;SDS011;40551;50.478;19.378;2022-09-09T15:01:43;5.30;;;2.40;;
53525;SDS011;40551;50.478;19.378;2022-09-09T15:04:15;5.60;;;2.60;;
53525;SDS011;40551;50.478;19.378;2022-09-09T15:06:47;5.90;;;2.30;;
53525;SDS011;40551;50.478;19.378;2022-09-09T15:09:21;7.10;;;2.80;;
53525;SDS011;40551;50.478;19.378;2022-09-09T15:11:52;6.00;;;2.40;;
53525;SDS011;40551;50.478;19.378;2022-09-09T15:14:24;7.00;;;2.50;;
53525;SDS011;40551;50.478;19.378;2022-09-09T15:16:56;6.70;;;2.70;;
53525;SDS011;40551;50.478;19.378;2022-09-09T15:19:27;6.20;;;2.40;;
53525;SDS011;40551;50.478;19.378;2022-09-09T15:21:59;5.60;;;2.20;;
53525;SDS011;40551;50.478;19.378;2022-09-09T15:24:31;9.00;;;2.90;;
53525;SDS011;40551;50.478;19.378;2022-09-09T15:27:03;8.70;;;2.70;;
53525;SDS011;40551;50.478;19.378;2022-09-09T15:29:34;8.50;;;2.60;;
53525;SDS011;40551;50.478;19.378;2022-09-09T15:32:07;9.50;;;3.00;;
53525;SDS011;40551;50.478;19.378;2022-09-09T15:34:38;7.20;;;2.60;;
53525;SDS011;40551;50.478;19.378;2022-09-09T15:37:10;8.20;;;2.70;;